createdAt,value
2022-08-11T00:07:47.873Z,19.52
2022-08-11T00:29:34.304Z,19.33
2022-08-11T00:52:03.774Z,19.03
2022-08-11T01:14:34.699Z,18.64
2022-08-11T01:36:56.804Z,18.25
2022-08-11T01:58:49.996Z,17.87
2022-08-11T02:20:56.470Z,17.58
2022-08-11T02:42:57.528Z,17.50
2022-08-11T03:04:56.909Z,17.20
2022-08-11T03:26:55.149Z,16.90
2022-08-11T03:48:55.990Z,16.83
2022-08-11T04:11:01.143Z,16.57
2022-08-11T04:33:13.189Z,16.61
2022-08-11T04:55:34.763Z,16.97
2022-08-11T05:17:53.410Z,17.26
2022-08-11T05:40:07.340Z,17.86
2022-08-11T06:01:53.931Z,18.79
2022-08-11T06:23:42.792Z,19.58
2022-08-11T06:45:32.396Z,20.24
2022-08-11T07:08:34.114Z,20.80
2022-08-11T07:30:21.660Z,21.31
2022-08-11T07:52:25.890Z,22.05
2022-08-11T08:14:30.133Z,24.01
2022-08-11T08:36:16.403Z,37.35
2022-08-11T08:58:03.637Z,48.03
2022-08-11T09:19:58.887Z,52.31
2022-08-11T09:42:01.785Z,40.54
2022-08-11T10:03:49.692Z,35.32
2022-08-11T10:25:53.559Z,34.18
2022-08-11T10:47:47.758Z,34.11
2022-08-11T11:09:41.672Z,34.49
2022-08-11T11:31:35.497Z,44.69
2022-08-11T11:53:21.609Z,51.14
2022-08-11T12:15:10.546Z,54.90
2022-08-11T12:36:59.677Z,54.28
2022-08-11T12:58:46.756Z,48.24
2022-08-11T13:20:36.481Z,49.25
2022-08-11T13:42:23.345Z,50.24
2022-08-11T14:04:29.101Z,45.54
2022-08-11T14:26:27.902Z,45.94
2022-08-11T14:48:14.143Z,44.04
2022-08-11T15:10:16.533Z,41.10
2022-08-11T15:32:20.475Z,38.05
2022-08-11T15:54:09.715Z,36.34
2022-08-11T16:16:13.553Z,35.27
2022-08-11T16:38:18.406Z,33.37
2022-08-11T17:00:06.938Z,31.21
2022-08-11T17:22:12.296Z,29.19
2022-08-11T17:44:17.024Z,27.24
2022-08-11T18:06:04.619Z,25.72
2022-08-11T18:28:11.582Z,24.86
2022-08-11T18:50:21.039Z,24.33
2022-08-11T19:12:39.161Z,23.97
2022-08-11T19:34:45.454Z,23.63
2022-08-11T19:56:50.566Z,23.23
2022-08-11T20:18:57.702Z,22.48
2022-08-11T20:41:01.538Z,21.80
2022-08-11T21:03:06.432Z,21.29
2022-08-11T21:25:11.633Z,20.83
2022-08-11T21:47:21.047Z,20.37
2022-08-11T22:09:40.628Z,19.88
2022-08-11T22:31:44.659Z,19.46
2022-08-11T22:53:57.164Z,19.09
2022-08-11T23:16:03.188Z,18.67
2022-08-11T23:38:06.533Z,18.42
